createdAt,value
2022-10-11T00:00:11.518Z,15.694
2022-10-11T00:01:11.299Z,15.643
2022-10-11T00:02:11.471Z,15.615
2022-10-11T00:03:11.315Z,15.585
2022-10-11T00:04:09.988Z,15.57
2022-10-11T00:05:11.502Z,15.52
2022-10-11T00:06:11.303Z,15.48
2022-10-11T00:07:10.793Z,15.5
2022-10-11T00:08:11.333Z,15.46
2022-10-11T00:09:10.264Z,15.43
2022-10-11T00:10:10.898Z,15.425
2022-10-11T00:11:11.401Z,15.435
2022-10-11T00:12:11.237Z,15.42
2022-10-11T00:13:11.780Z,15.41
2022-10-11T00:14:10.632Z,15.4
2022-10-11T00:15:10.867Z,15.385
2022-10-11T00:16:12.205Z,15.367
2022-10-11T00:17:11.394Z,15.38
2022-10-11T00:18:10.686Z,15.334
2022-10-11T00:19:11.011Z,15.295
2022-10-11T00:20:11.444Z,15.24
2022-10-11T00:21:10.624Z,15.235
2022-10-11T00:22:11.372Z,15.199
2022-10-11T00:23:11.067Z,15.166
2022-10-11T00:24:10.002Z,15.105
2022-10-11T00:25:11.385Z,15.065
2022-10-11T00:26:11.517Z,15.05
2022-10-11T00:27:11.080Z,15.08
2022-10-11T00:28:11.782Z,15.065
2022-10-11T00:29:10.312Z,15.03
2022-10-11T00:30:10.387Z,15.015
2022-10-11T00:31:11.404Z,14.97
2022-10-11T00:32:11.022Z,14.925
2022-10-11T00:33:10.419Z,14.885
2022-10-11T00:34:10.505Z,14.895
2022-10-11T00:35:10.932Z,14.867
2022-10-11T00:36:10.636Z,14.862
2022-10-11T00:37:11.584Z,14.81
2022-10-11T00:38:11.212Z,14.77
2022-10-11T00:39:10.799Z,14.775
2022-10-11T00:40:11.395Z,14.8
2022-10-11T00:41:11.160Z,14.785
2022-10-11T00:42:10.880Z,14.79
2022-10-11T00:43:10.730Z,14.8
2022-10-11T00:44:09.786Z,14.78
2022-10-11T00:45:12.244Z,14.8
2022-10-11T00:46:11.413Z,14.76
2022-10-11T00:47:10.867Z,14.7554
2022-10-11T00:48:11.569Z,14.726
2022-10-11T00:49:10.639Z,14.704
2022-10-11T00:50:10.949Z,14.6327
2022-10-11T00:51:12.337Z,14.6253
2022-10-11T00:52:11.267Z,14.59
2022-10-11T00:53:10.551Z,14.549
2022-10-11T00:54:10.587Z,14.546
2022-10-11T00:55:11.711Z,14.5163
2022-10-11T00:56:11.027Z,14.49
2022-10-11T00:57:11.686Z,14.4907
2022-10-11T00:58:11.405Z,14.4781
2022-10-11T00:59:10.152Z,14.495
2022-10-11T01:00:11.341Z,14.48
2022-10-11T01:01:11.036Z,14.455
2022-10-11T01:02:10.733Z,14.44
2022-10-11T01:03:11.439Z,14.44
2022-10-11T01:04:09.724Z,14.41
2022-10-11T01:05:28.617Z,14.395
2022-10-11T01:06:11.541Z,14.361
2022-10-11T01:07:11.193Z,14.316
2022-10-11T01:08:10.873Z,14.3
2022-10-11T01:09:10.489Z,14.25
2022-10-11T01:10:10.938Z,14.22
2022-10-11T01:11:11.248Z,14.21
2022-10-11T01:12:10.582Z,14.194
2022-10-11T01:13:10.707Z,14.27
2022-10-11T01:14:10.231Z,14.229
2022-10-11T01:15:10.877Z,14.155
2022-10-11T01:16:10.645Z,14.137
2022-10-11T01:17:11.861Z,14.1
2022-10-11T01:18:11.699Z,14.055
2022-10-11T01:19:11.010Z,14.085
2022-10-11T01:20:11.178Z,14.065
2022-10-11T01:21:11.041Z,14.025
2022-10-11T01:22:10.858Z,13.99
2022-10-11T01:23:11.444Z,13.98
2022-10-11T01:24:09.789Z,13.975
2022-10-11T01:25:11.258Z,13.95
2022-10-11T01:26:11.122Z,13.945
2022-10-11T01:27:11.329Z,13.945
2022-10-11T01:28:11.448Z,13.945
2022-10-11T01:29:10.324Z,13.935
2022-10-11T01:30:09.869Z,13.945
2022-10-11T01:31:11.795Z,13.935
2022-10-11T01:32:11.164Z,13.915
2022-10-11T01:33:12.111Z,13.925
2022-10-11T01:34:10.678Z,13.884
2022-10-11T01:35:11.229Z,13.862
2022-10-11T01:36:12.115Z,13.856
2022-10-11T01:37:11.478Z,13.8158
2022-10-11T01:38:12.270Z,13.76
2022-10-11T01:39:10.583Z,13.775
2022-10-11T01:40:11.308Z,13.765
2022-10-11T01:41:11.924Z,13.745
2022-10-11T01:42:11.174Z,13.715
2022-10-11T01:43:10.793Z,13.693
2022-10-11T01:44:11.144Z,13.69
2022-10-11T01:45:11.636Z,13.6841
2022-10-11T01:46:10.830Z,13.66
2022-10-11T01:47:11.525Z,13.672
2022-10-11T01:48:11.356Z,13.643
2022-10-11T01:49:10.088Z,13.644
2022-10-11T01:50:11.569Z,13.626
2022-10-11T01:51:11.202Z,13.52
2022-10-11T01:52:10.867Z,13.495
2022-10-11T01:53:11.479Z,13.49
2022-10-11T01:54:10.537Z,13.475
2022-10-11T01:55:10.807Z,13.46
2022-10-11T01:56:11.152Z,13.44
2022-10-11T01:57:11.101Z,13.42
2022-10-11T01:58:10.517Z,13.405
2022-10-11T01:59:10.711Z,13.41
2022-10-11T02:00:11.326Z,13.3791
2022-10-11T02:01:10.946Z,13.3108
2022-10-11T02:02:10.836Z,13.28
2022-10-11T02:03:10.747Z,13.255
2022-10-11T02:04:09.825Z,13.235
2022-10-11T02:05:11.429Z,13.225
2022-10-11T02:06:11.072Z,13.205
2022-10-11T02:07:10.478Z,13.2009
2022-10-11T02:08:11.179Z,13.1992
2022-10-11T02:09:09.845Z,13.1891
2022-10-11T02:10:11.702Z,13.166
2022-10-11T02:11:11.640Z,13.149
2022-10-11T02:12:11.279Z,13.149
2022-10-11T02:13:11.778Z,13.1208
2022-10-11T02:14:13.627Z,13.105
2022-10-11T02:15:11.270Z,13.0763
2022-10-11T02:16:11.788Z,13.069
2022-10-11T02:17:11.035Z,13.0381
2022-10-11T02:18:11.405Z,13.032
2022-10-11T02:19:10.653Z,13.005
2022-10-11T02:20:10.610Z,12.9836
2022-10-11T02:21:11.531Z,12.9584
2022-10-11T02:22:11.223Z,12.9236
2022-10-11T02:23:11.155Z,12.894
2022-10-11T02:24:10.918Z,12.862
2022-10-11T02:25:11.529Z,12.856
2022-10-11T02:26:10.592Z,12.856
2022-10-11T02:27:11.334Z,12.845
2022-10-11T02:28:10.897Z,12.805
2022-10-11T02:29:11.067Z,12.8
2022-10-11T02:30:11.385Z,12.795
2022-10-11T02:31:11.006Z,12.765
2022-10-11T02:32:11.798Z,12.79
2022-10-11T02:33:11.333Z,12.79
2022-10-11T02:34:10.233Z,12.775
2022-10-11T02:35:11.612Z,12.76
2022-10-11T02:36:11.407Z,12.71
2022-10-11T02:37:11.003Z,12.705
2022-10-11T02:38:11.298Z,12.7
2022-10-11T02:39:10.194Z,12.672
2022-10-11T02:40:10.984Z,12.62
2022-10-11T02:41:11.507Z,12.643
2022-10-11T02:42:10.547Z,12.605
2022-10-11T02:43:11.037Z,12.59
2022-10-11T02:44:10.665Z,12.57
2022-10-11T02:45:11.204Z,12.535
2022-10-11T02:46:11.012Z,12.51
2022-10-11T02:47:11.541Z,12.52
2022-10-11T02:48:11.073Z,12.5
2022-10-11T02:49:09.664Z,12.505
2022-10-11T02:50:11.420Z,12.49
2022-10-11T02:51:11.303Z,12.475
2022-10-11T02:52:11.025Z,12.425
2022-10-11T02:53:11.371Z,12.415
2022-10-11T02:54:10.255Z,12.39
2022-10-11T02:55:10.780Z,12.362
2022-10-11T02:56:11.062Z,12.356
2022-10-11T02:57:10.890Z,12.35
2022-10-11T02:58:10.648Z,12.3158
2022-10-11T02:59:10.710Z,12.295
2022-10-11T03:00:10.481Z,12.29
2022-10-11T03:01:12.354Z,12.265
2022-10-11T03:02:11.663Z,12.285
2022-10-11T03:03:10.935Z,12.27
2022-10-11T03:04:10.805Z,12.245
2022-10-11T03:05:11.320Z,12.205
2022-10-11T03:06:11.103Z,12.21
2022-10-11T03:07:11.742Z,12.1891
2022-10-11T03:08:11.669Z,12.166
2022-10-11T03:09:10.233Z,12.149
2022-10-11T03:10:11.340Z,12.127
2022-10-11T03:11:11.132Z,12.115
2022-10-11T03:12:10.756Z,12.065
2022-10-11T03:13:15.985Z,12.055
2022-10-11T03:14:10.806Z,12.025
2022-10-11T03:15:11.246Z,12.025
2022-10-11T03:16:11.238Z,12.01
2022-10-11T03:17:34.680Z,11.995
2022-10-11T03:18:10.547Z,11.99
2022-10-11T03:19:10.765Z,12.01
2022-10-11T03:20:11.085Z,11.965
2022-10-11T03:21:12.015Z,11.95
2022-10-11T03:22:11.772Z,11.945
2022-10-11T03:23:11.274Z,11.945
2022-10-11T03:24:10.041Z,11.93
2022-10-11T03:25:12.000Z,11.915
2022-10-11T03:26:10.940Z,11.8683
2022-10-11T03:27:10.563Z,11.833
2022-10-11T03:28:11.541Z,11.795
2022-10-11T03:29:10.339Z,11.79
2022-10-11T03:30:14.198Z,11.79
2022-10-11T03:31:11.288Z,11.75
2022-10-11T03:32:11.218Z,11.74
2022-10-11T03:33:11.927Z,11.72
2022-10-11T03:34:10.323Z,11.699
2022-10-11T03:35:10.054Z,11.6836
2022-10-11T03:36:11.205Z,11.668
2022-10-11T03:37:11.416Z,11.645
2022-10-11T03:38:12.964Z,11.609
2022-10-11T03:39:10.444Z,11.595
2022-10-11T03:40:11.373Z,11.58
2022-10-11T03:41:11.705Z,11.56
2022-10-11T03:42:11.420Z,11.543
2022-10-11T03:43:10.917Z,11.54
2022-10-11T03:44:10.942Z,11.532
2022-10-11T03:45:11.618Z,11.5163
2022-10-11T03:46:10.172Z,11.51
2022-10-11T03:47:11.285Z,11.505
2022-10-11T03:48:11.385Z,11.52
2022-10-11T03:49:09.871Z,11.515
2022-10-11T03:50:11.211Z,11.52
2022-10-11T03:51:10.144Z,11.51
2022-10-11T03:52:10.928Z,11.515
2022-10-11T03:53:11.477Z,11.525
2022-10-11T03:54:10.217Z,11.535
2022-10-11T03:55:10.716Z,11.515
2022-10-11T03:56:12.343Z,11.49
2022-10-11T03:57:11.398Z,11.485
2022-10-11T03:58:11.020Z,11.48
2022-10-11T03:59:10.665Z,11.445
2022-10-11T04:00:11.085Z,11.44
2022-10-11T04:01:10.731Z,11.445
2022-10-11T04:02:11.517Z,11.445
2022-10-11T04:03:10.851Z,11.43
2022-10-11T04:04:09.834Z,11.435
2022-10-11T04:05:11.402Z,11.4
2022-10-11T04:06:10.847Z,11.39
2022-10-11T04:07:11.421Z,11.356
2022-10-11T04:08:12.306Z,11.339
2022-10-11T04:09:10.465Z,11.322
2022-10-11T04:10:11.820Z,11.295
2022-10-11T04:11:11.219Z,11.285
2022-10-11T04:12:10.298Z,11.27
2022-10-11T04:13:11.489Z,11.265
2022-10-11T04:14:10.434Z,11.235
2022-10-11T04:15:10.645Z,11.255
2022-10-11T04:16:11.190Z,11.255
2022-10-11T04:17:10.881Z,11.225
2022-10-11T04:18:10.647Z,11.215
2022-10-11T04:19:10.762Z,11.225
2022-10-11T04:20:10.951Z,11.1841
2022-10-11T04:21:11.420Z,11.172
2022-10-11T04:22:11.756Z,11.155
2022-10-11T04:23:11.003Z,11.148
2022-10-11T04:24:11.193Z,11.165
2022-10-11T04:25:11.636Z,11.126
2022-10-11T04:26:10.987Z,11.08
2022-10-11T04:27:11.868Z,11.085
2022-10-11T04:28:10.819Z,11.085
2022-10-11T04:29:10.163Z,11.075
2022-10-11T04:30:11.695Z,11.06
2022-10-11T04:31:11.769Z,11.05
2022-10-11T04:32:10.561Z,11.05
2022-10-11T04:33:11.580Z,11.04
2022-10-11T04:34:10.412Z,11.015
2022-10-11T04:35:10.768Z,11.025
2022-10-11T04:36:11.863Z,11.025
2022-10-11T04:37:11.163Z,11.01
2022-10-11T04:38:11.569Z,11.025
2022-10-11T04:39:10.477Z,11.01
2022-10-11T04:40:10.545Z,11.03
2022-10-11T04:41:11.857Z,11.03
2022-10-11T04:42:11.316Z,11.055
2022-10-11T04:43:11.326Z,11.055
2022-10-11T04:44:10.903Z,11.035
2022-10-11T04:45:11.592Z,11.025
2022-10-11T04:46:11.409Z,11.03
2022-10-11T04:47:11.287Z,10.99
2022-10-11T04:48:11.099Z,10.98
2022-10-11T04:49:09.418Z,10.96
2022-10-11T04:50:11.759Z,10.955
2022-10-11T04:51:10.836Z,10.965
2022-10-11T04:52:11.017Z,10.96
2022-10-11T04:53:11.430Z,10.93
2022-10-11T04:54:09.945Z,10.91
2022-10-11T04:55:11.904Z,10.8791
2022-10-11T04:56:11.385Z,10.856
2022-10-11T04:57:11.409Z,10.872
2022-10-11T04:58:10.545Z,10.89
2022-10-11T04:59:10.464Z,10.884
2022-10-11T05:00:10.201Z,10.844
2022-10-11T05:01:11.653Z,10.847
2022-10-11T05:02:11.176Z,10.829
2022-10-11T05:03:10.663Z,10.8108
2022-10-11T05:04:11.079Z,10.797
2022-10-11T05:05:11.222Z,10.7881
2022-10-11T05:06:10.919Z,10.8108
2022-10-11T05:07:11.965Z,10.8153
2022-10-11T05:08:11.088Z,10.7772
2022-10-11T05:09:10.138Z,10.76
2022-10-11T05:10:11.025Z,10.76
2022-10-11T05:11:11.047Z,10.745
2022-10-11T05:12:10.247Z,10.74
2022-10-11T05:13:11.265Z,10.75
2022-10-11T05:14:09.985Z,10.725
2022-10-11T05:15:10.217Z,10.72
2022-10-11T05:16:11.859Z,10.6783
2022-10-11T05:17:10.830Z,10.666
2022-10-11T05:18:10.629Z,10.655
2022-10-11T05:19:10.229Z,10.6208
2022-10-11T05:20:10.767Z,10.61
2022-10-11T05:21:10.482Z,10.585
2022-10-11T05:22:11.254Z,10.57
2022-10-11T05:23:10.999Z,10.57
2022-10-11T05:24:09.730Z,10.55
2022-10-11T05:25:11.495Z,10.525
2022-10-11T05:26:11.233Z,10.515
2022-10-11T05:27:10.399Z,10.53
2022-10-11T05:28:10.752Z,10.525
2022-10-11T05:29:10.172Z,10.51
2022-10-11T05:30:10.993Z,10.51
2022-10-11T05:31:11.388Z,10.47
2022-10-11T05:32:10.844Z,10.475
2022-10-11T05:33:11.870Z,10.43
2022-10-11T05:34:10.237Z,10.395
2022-10-11T05:35:10.768Z,10.394
2022-10-11T05:36:11.103Z,10.356
2022-10-11T05:37:11.968Z,10.35
2022-10-11T05:38:11.018Z,10.328
2022-10-11T05:39:11.008Z,10.345
2022-10-11T05:40:10.709Z,10.327
2022-10-11T05:41:10.506Z,10.3
2022-10-11T05:42:11.943Z,10.27
2022-10-11T05:43:10.889Z,10.25
2022-10-11T05:44:10.126Z,10.235
2022-10-11T05:45:11.881Z,10.205
2022-10-11T05:46:11.444Z,10.193
2022-10-11T05:47:10.594Z,10.1783
2022-10-11T05:48:11.186Z,10.16
2022-10-11T05:49:10.474Z,10.132
2022-10-11T05:50:10.936Z,10.115
2022-10-11T05:51:11.126Z,10.1
2022-10-11T05:52:11.118Z,10.1
2022-10-11T05:53:10.765Z,10.11
2022-10-11T05:54:10.413Z,10.105
2022-10-11T05:55:11.235Z,10.08
2022-10-11T05:56:10.360Z,10.085
2022-10-11T05:57:11.333Z,10.075
2022-10-11T05:58:10.312Z,10.07
2022-10-11T05:59:09.668Z,10.085
2022-10-11T06:00:10.927Z,10.1
2022-10-11T06:01:11.369Z,10.095
2022-10-11T06:02:11.136Z,10.11
2022-10-11T06:03:11.447Z,10.115
2022-10-11T06:04:10.248Z,10.172
2022-10-11T06:05:12.162Z,10.172
2022-10-11T06:06:11.404Z,10.183
2022-10-11T06:07:11.183Z,10.1891
2022-10-11T06:08:11.516Z,10.183
2022-10-11T06:09:11.030Z,10.2
2022-10-11T06:10:10.514Z,10.183
2022-10-11T06:11:12.202Z,10.195
2022-10-11T06:12:11.333Z,10.205
2022-10-11T06:13:10.937Z,10.225
2022-10-11T06:14:10.886Z,10.21
2022-10-11T06:15:11.098Z,10.245
2022-10-11T06:16:11.340Z,10.275
2022-10-11T06:17:11.283Z,10.28
2022-10-11T06:18:10.269Z,10.2827
2022-10-11T06:19:10.618Z,10.2915
2022-10-11T06:20:10.916Z,10.29
2022-10-11T06:21:11.447Z,10.3
2022-10-11T06:22:11.447Z,10.2915
2022-10-11T06:23:11.232Z,10.2772
2022-10-11T06:24:09.343Z,10.295
2022-10-11T06:25:12.017Z,10.286
2022-10-11T06:26:11.219Z,10.294
2022-10-11T06:27:11.022Z,10.333
2022-10-11T06:28:11.178Z,10.373
2022-10-11T06:29:10.020Z,10.41
2022-10-11T06:30:10.820Z,10.415
2022-10-11T06:31:11.474Z,10.46
2022-10-11T06:32:10.797Z,10.485
2022-10-11T06:33:11.501Z,10.515
2022-10-11T06:34:10.467Z,10.51
2022-10-11T06:35:10.689Z,10.545
2022-10-11T06:36:10.466Z,10.52
2022-10-11T06:37:11.186Z,10.515
2022-10-11T06:38:10.633Z,10.515
2022-10-11T06:39:10.747Z,10.535
2022-10-11T06:40:10.694Z,10.525
2022-10-11T06:41:11.291Z,10.55
2022-10-11T06:42:11.571Z,10.58
2022-10-11T06:43:11.136Z,10.6
2022-10-11T06:44:13.904Z,10.615
2022-10-11T06:45:11.717Z,10.637
2022-10-11T06:46:10.442Z,10.683
2022-10-11T06:47:10.524Z,10.72
2022-10-11T06:48:11.571Z,10.75
2022-10-11T06:49:10.059Z,10.78
2022-10-11T06:50:11.552Z,10.8
2022-10-11T06:51:11.414Z,10.822
2022-10-11T06:52:10.745Z,10.8683
2022-10-11T06:53:11.593Z,10.9
2022-10-11T06:54:10.812Z,10.905
2022-10-11T06:55:11.965Z,10.925
2022-10-11T06:56:11.256Z,10.955
2022-10-11T06:57:10.792Z,10.97
2022-10-11T06:58:11.033Z,10.99
2022-10-11T06:59:10.463Z,11.02
2022-10-11T07:00:12.736Z,11.05
2022-10-11T07:01:10.943Z,11.085
2022-10-11T07:02:11.666Z,11.105
2022-10-11T07:03:11.288Z,11.137
2022-10-11T07:04:10.928Z,11.16
2022-10-11T07:05:11.507Z,11.194
2022-10-11T07:06:10.819Z,11.24
2022-10-11T07:07:11.507Z,11.275
2022-10-11T07:08:10.798Z,11.295
2022-10-11T07:09:10.946Z,11.35
2022-10-11T07:10:10.992Z,11.41
2022-10-11T07:11:10.703Z,11.445
2022-10-11T07:12:11.170Z,11.475
2022-10-11T07:13:16.284Z,11.52
2022-10-11T07:14:10.281Z,11.575
2022-10-11T07:15:11.053Z,11.605
2022-10-11T07:16:11.259Z,11.649
2022-10-11T07:17:11.198Z,11.709
2022-10-11T07:18:11.532Z,11.745
2022-10-11T07:19:09.931Z,11.795
2022-10-11T07:20:11.341Z,11.805
2022-10-11T07:21:11.385Z,11.856
2022-10-11T07:22:10.864Z,11.889
2022-10-11T07:23:11.758Z,11.945
2022-10-11T07:24:09.655Z,11.99
2022-10-11T07:25:11.752Z,12.065
2022-10-11T07:26:11.082Z,12.1
2022-10-11T07:27:10.857Z,12.166
2022-10-11T07:28:11.433Z,12.23
2022-10-11T07:29:10.515Z,12.29
2022-10-11T07:30:10.690Z,12.345
2022-10-11T07:31:11.453Z,12.4
2022-10-11T07:32:11.229Z,12.465
2022-10-11T07:33:10.902Z,12.495
2022-10-11T07:34:11.162Z,12.575
2022-10-11T07:35:11.340Z,12.637
2022-10-11T07:36:11.051Z,12.699
2022-10-11T07:37:11.125Z,12.755
2022-10-11T07:38:11.241Z,12.8158
2022-10-11T07:39:09.993Z,12.872
2022-10-11T07:40:11.417Z,12.935
2022-10-11T07:41:10.876Z,12.99
2022-10-11T07:42:10.121Z,13.065
2022-10-11T07:43:11.524Z,13.1307
2022-10-11T07:44:09.996Z,13.205
2022-10-11T07:45:10.256Z,13.245
2022-10-11T07:46:11.186Z,13.306
2022-10-11T07:47:11.462Z,13.329
2022-10-11T07:48:10.347Z,13.4
2022-10-11T07:49:10.630Z,13.46
2022-10-11T07:50:11.461Z,13.48
2022-10-11T07:51:11.468Z,13.545
2022-10-11T07:52:11.412Z,13.59
2022-10-11T07:53:11.304Z,13.643
2022-10-11T07:54:10.490Z,13.705
2022-10-11T07:55:11.158Z,13.74
2022-10-11T07:56:10.727Z,13.77
2022-10-11T07:57:11.545Z,13.806
2022-10-11T07:58:11.052Z,13.845
2022-10-11T07:59:11.088Z,13.925
2022-10-11T08:00:10.678Z,13.97
2022-10-11T08:01:11.038Z,14
2022-10-11T08:02:11.565Z,14.02
2022-10-11T08:03:11.260Z,14.08
2022-10-11T08:04:10.128Z,14.1
2022-10-11T08:05:11.553Z,14.137
2022-10-11T08:06:10.807Z,14.1783
2022-10-11T08:07:11.465Z,14.24
2022-10-11T08:08:11.574Z,14.24
2022-10-11T08:09:10.216Z,14.28
2022-10-11T08:10:11.541Z,14.322
2022-10-11T08:11:11.293Z,14.38
2022-10-11T08:12:10.866Z,14.41
2022-10-11T08:13:11.354Z,14.455
2022-10-11T08:14:10.982Z,14.505
2022-10-11T08:15:11.267Z,14.535
2022-10-11T08:16:11.874Z,14.58
2022-10-11T08:17:11.805Z,14.637
2022-10-11T08:18:10.795Z,14.7
2022-10-11T08:19:10.893Z,14.74
2022-10-11T08:20:11.443Z,14.79
2022-10-11T08:21:10.909Z,14.79
2022-10-11T08:22:11.436Z,14.765
2022-10-11T08:23:11.345Z,14.79
2022-10-11T08:24:09.407Z,14.839
2022-10-11T08:25:11.798Z,14.8683
2022-10-11T08:26:10.760Z,14.91
2022-10-11T08:27:11.141Z,14.93
2022-10-11T08:28:11.762Z,14.985
2022-10-11T08:29:10.197Z,15.04
2022-10-11T08:30:10.587Z,15.085
2022-10-11T08:31:11.173Z,15.149
2022-10-11T08:32:11.244Z,15.1891
2022-10-11T08:33:11.112Z,15.24
2022-10-11T08:34:10.794Z,15.275
2022-10-11T08:35:11.237Z,15.3216
2022-10-11T08:36:10.925Z,15.339
2022-10-11T08:37:11.718Z,15.333
2022-10-11T08:38:09.920Z,15.378
2022-10-11T08:39:10.462Z,15.43
2022-10-11T08:40:11.823Z,15.49
2022-10-11T08:41:11.081Z,15.55
2022-10-11T08:42:10.861Z,15.535
2022-10-11T08:43:10.954Z,15.55
2022-10-11T08:44:09.319Z,15.6208
2022-10-11T08:45:12.218Z,15.61
2022-10-11T08:46:10.785Z,15.6316
2022-10-11T08:47:11.692Z,15.626
2022-10-11T08:48:10.806Z,15.626
2022-10-11T08:49:09.840Z,15.6783
2022-10-11T08:50:10.838Z,15.666
2022-10-11T08:51:11.076Z,15.655
2022-10-11T08:52:10.632Z,15.683
2022-10-11T08:53:11.162Z,15.6783
2022-10-11T08:54:10.089Z,15.715
2022-10-11T08:55:12.232Z,15.74
2022-10-11T08:56:10.794Z,15.79
2022-10-11T08:57:11.086Z,15.845
2022-10-11T08:58:11.311Z,15.883
2022-10-11T08:59:10.400Z,15.955
2022-10-11T09:00:10.310Z,16.01
2022-10-11T09:01:11.616Z,16.05
2022-10-11T09:02:11.204Z,16.09
2022-10-11T09:03:10.500Z,16.1036
2022-10-11T09:04:10.463Z,16.146
2022-10-11T09:05:11.108Z,16.182
2022-10-11T09:06:11.577Z,16.222
2022-10-11T09:07:11.155Z,16.27
2022-10-11T09:08:10.716Z,16.341
2022-10-11T09:09:10.918Z,16.363
2022-10-11T09:10:11.015Z,16.3736
2022-10-11T09:11:11.209Z,16.43
2022-10-11T09:12:11.263Z,16.4353
2022-10-11T09:13:11.528Z,16.4672
2022-10-11T09:14:09.847Z,16.53
2022-10-11T09:15:11.733Z,16.575
2022-10-11T09:16:11.309Z,16.654
2022-10-11T09:17:10.904Z,16.71
2022-10-11T09:18:11.448Z,16.75
2022-10-11T09:19:10.455Z,16.8
2022-10-11T09:20:10.907Z,16.85
2022-10-11T09:21:11.518Z,16.885
2022-10-11T09:22:11.016Z,16.915
2022-10-11T09:23:11.217Z,16.935
2022-10-11T09:24:10.748Z,16.96
2022-10-11T09:25:10.906Z,17.045
2022-10-11T09:26:10.771Z,17.095
2022-10-11T09:27:11.680Z,17.149
2022-10-11T09:28:10.986Z,17.177
2022-10-11T09:29:10.065Z,17.255
2022-10-11T09:30:11.405Z,17.26
2022-10-11T09:31:11.446Z,17.29
2022-10-11T09:32:10.660Z,17.327
2022-10-11T09:33:11.163Z,17.362
2022-10-11T09:34:10.049Z,17.3683
2022-10-11T09:35:10.885Z,17.356
2022-10-11T09:36:11.501Z,17.4
2022-10-11T09:37:10.642Z,17.455
2022-10-11T09:38:12.038Z,17.495
2022-10-11T09:39:10.482Z,17.545
2022-10-11T09:40:10.562Z,17.55
2022-10-11T09:41:12.213Z,17.52
2022-10-11T09:42:11.371Z,17.56
2022-10-11T09:43:10.753Z,17.605
2022-10-11T09:44:10.735Z,17.6
2022-10-11T09:45:11.597Z,17.649
2022-10-11T09:46:11.016Z,17.715
2022-10-11T09:47:11.354Z,17.74
2022-10-11T09:48:11.345Z,17.785
2022-10-11T09:49:09.587Z,17.845
2022-10-11T09:50:11.580Z,17.873
2022-10-11T09:51:11.085Z,17.93
2022-10-11T09:52:10.507Z,17.945
2022-10-11T09:53:11.464Z,17.95
2022-10-11T09:54:10.553Z,17.995
2022-10-11T09:55:10.907Z,18.015
2022-10-11T09:56:11.687Z,18.02
2022-10-11T09:57:11.060Z,18.04
2022-10-11T09:58:10.514Z,18.055
2022-10-11T09:59:10.350Z,18.06
2022-10-11T10:00:10.365Z,18.075
2022-10-11T10:01:10.698Z,18.075
2022-10-11T10:02:10.863Z,18.095
2022-10-11T10:03:10.094Z,18.137
2022-10-11T10:04:10.060Z,18.138
2022-10-11T10:05:10.956Z,18.137
2022-10-11T10:06:11.247Z,18.195
2022-10-11T10:07:10.921Z,18.22
2022-10-11T10:08:10.623Z,18.215
2022-10-11T10:09:10.620Z,18.285
2022-10-11T10:10:11.474Z,18.27
2022-10-11T10:11:11.348Z,18.333
2022-10-11T10:12:11.404Z,18.384
2022-10-11T10:13:11.072Z,18.41
2022-10-11T10:14:10.484Z,18.465
2022-10-11T10:15:11.546Z,18.525
2022-10-11T10:16:10.842Z,18.575
2022-10-11T10:17:11.915Z,18.62
2022-10-11T10:18:11.391Z,18.59
2022-10-11T10:19:09.611Z,18.626
2022-10-11T10:20:11.103Z,18.66
2022-10-11T10:21:10.957Z,18.682
2022-10-11T10:22:11.734Z,18.6891
2022-10-11T10:23:10.658Z,18.714
2022-10-11T10:24:10.098Z,18.744
2022-10-11T10:25:11.840Z,18.7961
2022-10-11T10:26:11.332Z,18.81
2022-10-11T10:27:10.824Z,18.835
2022-10-11T10:28:11.320Z,18.853
2022-10-11T10:29:10.302Z,18.8854
2022-10-11T10:30:11.025Z,18.905
2022-10-11T10:31:11.461Z,18.9584
2022-10-11T10:32:14.298Z,18.9618
2022-10-11T10:33:10.673Z,18.93
2022-10-11T10:34:10.408Z,18.9353
2022-10-11T10:35:11.101Z,18.9727
2022-10-11T10:36:11.137Z,18.99
2022-10-11T10:37:11.467Z,19
2022-10-11T10:38:11.005Z,18.985
2022-10-11T10:39:10.967Z,18.96
2022-10-11T10:40:11.764Z,18.985
2022-10-11T10:41:11.500Z,19
2022-10-11T10:42:10.359Z,19.05
2022-10-11T10:43:10.970Z,19.095
2022-10-11T10:44:10.105Z,19.1
2022-10-11T10:45:14.395Z,19.085
2022-10-11T10:46:11.258Z,19.1
2022-10-11T10:47:10.818Z,19.105
2022-10-11T10:48:11.723Z,19.111
2022-10-11T10:50:11.270Z,19.183
2022-10-11T10:51:11.570Z,19.21
2022-10-11T10:52:11.030Z,19.25
2022-10-11T10:53:10.906Z,19.285
2022-10-11T10:54:10.510Z,19.327
2022-10-11T10:55:11.127Z,19.345
2022-10-11T10:56:11.255Z,19.42
2022-10-11T10:57:11.661Z,19.445
2022-10-11T10:58:12.971Z,19.48
2022-10-11T10:59:10.481Z,19.505
2022-10-11T11:00:10.891Z,19.53
2022-10-11T11:01:11.045Z,19.595
2022-10-11T11:02:35.520Z,19.585
2022-10-11T11:03:11.530Z,19.565
2022-10-11T11:04:10.524Z,19.56
2022-10-11T11:05:11.107Z,19.51
2022-10-11T11:06:11.629Z,19.49
2022-10-11T11:07:11.335Z,19.47
2022-10-11T11:08:11.126Z,19.399
2022-10-11T11:09:10.559Z,19.316
2022-10-11T11:10:10.754Z,19.317
2022-10-11T11:11:10.667Z,19.327
2022-10-11T11:12:11.227Z,19.333
2022-10-11T11:13:11.412Z,19.3683
2022-10-11T11:14:10.568Z,19.39
2022-10-11T11:15:11.490Z,19.43
2022-10-11T11:16:11.135Z,19.405
2022-10-11T11:17:12.046Z,19.425
2022-10-11T11:18:11.464Z,19.46
2022-10-11T11:19:10.216Z,19.46
2022-10-11T11:20:11.862Z,19.495
2022-10-11T11:21:11.430Z,19.495
2022-10-11T11:22:10.764Z,19.505
2022-10-11T11:23:11.652Z,19.48
2022-10-11T11:24:10.433Z,19.47
2022-10-11T11:25:11.183Z,19.505
2022-10-11T11:26:11.783Z,19.505
2022-10-11T11:27:11.018Z,19.48
2022-10-11T11:28:11.023Z,19.47
2022-10-11T11:29:10.815Z,19.45
2022-10-11T11:30:11.489Z,19.46
2022-10-11T11:31:10.886Z,19.455
2022-10-11T11:32:11.419Z,19.47
2022-10-11T11:33:10.738Z,19.51
2022-10-11T11:34:09.584Z,19.54
2022-10-11T11:35:11.458Z,19.59
2022-10-11T11:36:11.223Z,19.615
2022-10-11T11:37:11.013Z,19.649
2022-10-11T11:38:11.399Z,19.699
2022-10-11T11:39:10.052Z,19.785
2022-10-11T11:40:09.656Z,19.805
2022-10-11T11:41:11.606Z,19.873
2022-10-11T11:42:11.271Z,19.945
2022-10-11T11:43:10.831Z,19.97
2022-10-11T11:44:10.505Z,19.99
2022-10-11T11:45:11.202Z,20.04
2022-10-11T11:46:11.078Z,20.087
2022-10-11T11:47:11.363Z,20.152
2022-10-11T11:48:10.732Z,20.1954
2022-10-11T11:49:12.950Z,20.215
2022-10-11T11:50:10.943Z,20.23
2022-10-11T11:51:11.633Z,20.245
2022-10-11T11:52:11.322Z,20.285
2022-10-11T11:53:11.872Z,20.329
2022-10-11T11:54:10.099Z,20.3741
2022-10-11T11:55:11.592Z,20.3984
2022-10-11T11:56:10.292Z,20.467
2022-10-11T11:57:11.951Z,20.523
2022-10-11T11:58:10.638Z,20.5818
2022-10-11T11:59:11.063Z,20.632
2022-10-11T12:00:11.272Z,20.658
2022-10-11T12:01:10.925Z,20.715
2022-10-11T12:02:10.735Z,20.755
2022-10-11T12:03:11.467Z,20.8
2022-10-11T12:04:09.749Z,20.856
2022-10-11T12:05:11.739Z,20.92
2022-10-11T12:06:10.729Z,20.995
2022-10-11T12:07:16.208Z,21.07
2022-10-11T12:08:11.830Z,21.1
2022-10-11T12:09:10.652Z,21.166
2022-10-11T12:10:10.677Z,21.225
2022-10-11T12:11:11.740Z,21.23
2022-10-11T12:12:11.395Z,21.275
2022-10-11T12:13:10.979Z,21.339
2022-10-11T12:14:10.846Z,21.3791
2022-10-11T12:15:11.227Z,21.45
2022-10-11T12:16:10.927Z,21.515
2022-10-11T12:17:11.629Z,21.555
2022-10-11T12:18:11.199Z,21.595
2022-10-11T12:19:10.005Z,21.6258
2022-10-11T12:20:15.933Z,21.643
2022-10-11T12:21:11.377Z,21.655
2022-10-11T12:22:10.640Z,21.7
2022-10-11T12:23:11.707Z,21.725
2022-10-11T12:24:10.023Z,21.73
2022-10-11T12:25:13.808Z,21.75
2022-10-11T12:26:11.421Z,21.735
2022-10-11T12:27:11.439Z,21.765
2022-10-11T12:28:10.776Z,21.785
2022-10-11T12:29:10.522Z,21.75
2022-10-11T12:30:11.706Z,21.72
2022-10-11T12:31:10.744Z,21.65
2022-10-11T12:32:11.974Z,21.515
2022-10-11T12:33:11.029Z,21.48
2022-10-11T12:34:09.393Z,21.398
2022-10-11T12:35:11.801Z,21.3791
2022-10-11T12:36:11.247Z,21.334
2022-10-11T12:37:11.714Z,21.3158